createdAt,value
2023-04-26T05:01:55.958Z,4.57
2023-04-26T05:06:57.695Z,4.61
2023-04-26T05:11:59.323Z,4.62
2023-04-26T05:17:01.615Z,4.67
2023-04-26T05:22:03.575Z,4.76
2023-04-26T05:27:07.290Z,4.88
2023-04-26T05:32:28.983Z,4.96
2023-04-26T05:37:48.718Z,5.01
2023-04-26T05:42:51.129Z,5.05
2023-04-26T05:47:52.882Z,5.13
2023-04-26T05:52:54.489Z,5.22
2023-04-26T05:57:55.982Z,5.31
2023-04-26T06:02:58.316Z,5.38
2023-04-26T06:08:01.390Z,5.35
2023-04-26T06:13:03.339Z,5.48
2023-04-26T06:18:08.601Z,5.64
2023-04-26T06:23:10.244Z,5.79
2023-04-26T06:28:12.555Z,5.85
2023-04-26T06:33:14.129Z,6.00
2023-04-26T06:38:15.692Z,6.10
2023-04-26T06:43:18.003Z,6.19
2023-04-26T06:48:35.045Z,6.29
2023-04-26T06:53:38.238Z,6.46
2023-04-26T06:58:40.191Z,6.54
2023-04-26T07:03:42.929Z,6.60
2023-04-26T07:08:44.500Z,6.60
2023-04-26T07:13:45.933Z,6.73
2023-04-26T07:18:50.300Z,6.51
2023-04-26T07:23:58.320Z,6.53
2023-04-26T07:29:00.854Z,6.75
2023-04-26T07:34:02.325Z,7.06
2023-04-26T07:39:05.289Z,7.01
2023-04-26T07:44:06.697Z,7.08
2023-04-26T07:49:08.122Z,7.21
2023-04-26T07:54:09.552Z,7.38
2023-04-26T07:59:11.235Z,7.43
2023-04-26T08:04:12.845Z,7.48
2023-04-26T08:09:14.840Z,7.75
2023-04-26T08:14:16.439Z,7.96
2023-04-26T08:19:17.840Z,7.89
2023-04-26T08:24:19.280Z,7.82
2023-04-26T08:29:21.337Z,7.81
2023-04-26T08:34:22.948Z,7.66
2023-04-26T08:39:24.394Z,7.56
2023-04-26T08:44:25.871Z,7.56
2023-04-26T08:49:44.329Z,7.92
2023-04-26T08:54:46.905Z,8.37
2023-04-26T08:59:48.734Z,8.24
2023-04-26T09:04:51.377Z,7.78
2023-04-26T09:09:54.704Z,7.87
2023-04-26T09:14:56.657Z,8.35
2023-04-26T09:19:59.623Z,8.44
2023-04-26T09:25:05.052Z,8.21
2023-04-26T09:30:17.291Z,8.22
2023-04-26T09:35:30.540Z,8.27
2023-04-26T09:40:34.661Z,8.52
2023-04-26T09:45:57.558Z,8.35
2023-04-26T09:51:09.579Z,8.13
2023-04-26T09:56:13.602Z,8.31
2023-04-26T10:01:17.675Z,8.71
2023-04-26T10:06:19.226Z,8.84
2023-04-26T10:11:21.813Z,9.01
2023-04-26T10:16:23.758Z,9.15
2023-04-26T10:21:36.958Z,9.22
2023-04-26T10:26:54.678Z,9.34
2023-04-26T10:32:02.351Z,9.53
2023-04-26T10:37:18.066Z,9.84
2023-04-26T10:42:30.811Z,9.88
2023-04-26T10:47:35.019Z,9.66
2023-04-26T10:53:03.363Z,9.49
2023-04-26T10:58:44.979Z,9.28
2023-04-26T11:04:06.670Z,9.21
2023-04-26T11:09:41.269Z,9.32
2023-04-26T11:14:43.284Z,9.42
2023-04-26T11:19:47.257Z,9.51
2023-04-26T11:24:49.782Z,9.69
2023-04-26T11:29:54.709Z,10.18
2023-04-26T11:35:00.199Z,10.12
2023-04-26T11:40:01.631Z,9.77
2023-04-26T11:45:06.846Z,9.63
2023-04-26T11:50:09.803Z,9.68
2023-04-26T11:55:11.203Z,9.73
2023-04-26T12:00:15.769Z,9.80
2023-04-26T12:05:31.921Z,9.75
2023-04-26T12:10:37.620Z,9.59
2023-04-26T12:15:39.084Z,9.59
2023-04-26T12:20:42.299Z,9.82
2023-04-26T12:25:55.806Z,10.22
2023-04-26T12:31:03.688Z,10.47
2023-04-26T12:36:09.942Z,10.40
2023-04-26T12:41:11.363Z,10.12
2023-04-26T12:46:12.965Z,9.90
2023-04-26T12:51:14.458Z,10.05
2023-04-26T12:56:16.318Z,10.35
2023-04-26T13:01:17.906Z,10.66
2023-04-26T13:06:19.516Z,10.68
2023-04-26T13:11:20.973Z,10.42
2023-04-26T13:16:22.671Z,10.24
2023-04-26T13:21:24.244Z,10.33
2023-04-26T13:26:27.652Z,11.96
2023-04-26T13:31:29.540Z,13.63
2023-04-26T13:36:32.300Z,13.10
2023-04-26T13:41:34.908Z,12.11
2023-04-26T13:46:36.376Z,11.30
2023-04-26T13:51:38.076Z,10.94
2023-04-26T13:56:39.524Z,10.86
2023-04-26T14:01:41.109Z,10.88
2023-04-26T14:06:42.606Z,10.79
2023-04-26T14:11:45.869Z,10.82
2023-04-26T14:16:52.688Z,10.96
2023-04-26T14:21:54.243Z,10.76
2023-04-26T14:26:55.665Z,10.57
2023-04-26T14:31:57.243Z,10.35
2023-04-26T14:37:01.528Z,10.12
2023-04-26T14:42:03.988Z,10.01
2023-04-26T14:47:05.521Z,9.91
2023-04-26T14:52:07.004Z,9.87
2023-04-26T14:57:09.243Z,9.74
2023-04-26T15:02:11.955Z,9.61
2023-04-26T15:07:28.371Z,9.53
2023-04-26T15:12:33.449Z,9.52
2023-04-26T15:17:34.886Z,9.60
2023-04-26T15:22:38.726Z,9.79
2023-04-26T15:27:41.010Z,9.94
2023-04-26T15:32:42.548Z,9.97
2023-04-26T15:37:44.114Z,9.99
2023-04-26T15:42:45.675Z,9.83
2023-04-26T15:47:47.394Z,9.70
2023-04-26T15:52:48.918Z,9.55
2023-04-26T15:57:50.316Z,9.47
2023-04-26T16:02:51.906Z,9.48
2023-04-26T16:07:53.562Z,9.56
2023-04-26T16:12:55.531Z,9.57
2023-04-26T16:17:57.022Z,9.49
2023-04-26T16:22:58.590Z,9.42
2023-04-26T16:27:59.986Z,9.42
2023-04-26T16:33:02.254Z,9.50
2023-04-26T16:38:03.871Z,9.62
2023-04-26T16:43:06.634Z,9.77
2023-04-26T16:48:08.097Z,9.81
2023-04-26T16:53:09.570Z,9.74
2023-04-26T16:58:11.629Z,9.64
2023-04-26T17:03:13.671Z,9.50
2023-04-26T17:08:16.554Z,9.38
2023-04-26T17:13:18.195Z,9.27
2023-04-26T17:18:19.922Z,9.15
2023-04-26T17:23:21.410Z,9.02
2023-04-26T17:28:22.845Z,8.96
2023-04-26T17:33:25.791Z,8.94
2023-04-26T17:38:27.106Z,8.88
2023-04-26T17:43:28.579Z,8.79
2023-04-26T17:48:30.065Z,8.75
2023-04-26T17:53:31.582Z,8.72
2023-04-26T17:58:33.186Z,8.68
2023-04-26T18:03:35.770Z,8.61
2023-04-26T18:08:37.529Z,8.55
2023-04-26T18:13:38.953Z,8.48
2023-04-26T18:18:40.364Z,8.40
2023-04-26T18:23:42.175Z,8.31
2023-04-26T18:28:45.954Z,8.27
2023-04-26T18:33:48.353Z,8.20
2023-04-26T18:38:50.030Z,8.17
2023-04-26T18:43:53.411Z,8.15
2023-04-26T18:48:54.805Z,8.13
2023-04-26T18:53:56.847Z,8.12
2023-04-26T18:58:58.397Z,8.07
2023-04-26T19:04:00.028Z,8.07
2023-04-26T19:09:01.569Z,8.07
2023-04-26T19:14:03.083Z,8.00
2023-04-26T19:19:05.512Z,8.03
2023-04-26T19:24:07.330Z,8.08
2023-04-26T19:29:09.911Z,8.14
2023-04-26T19:34:12.847Z,8.16
2023-04-26T19:39:16.397Z,8.19
2023-04-26T19:44:17.922Z,8.20
2023-04-26T19:49:19.329Z,8.16
2023-04-26T19:54:20.946Z,8.10
2023-04-26T19:59:22.412Z,8.09
2023-04-26T20:04:24.045Z,8.08
2023-04-26T20:09:25.571Z,7.98
2023-04-26T20:14:27.521Z,7.81
2023-04-26T20:19:29.183Z,7.72
2023-04-26T20:24:30.664Z,7.67
2023-04-26T20:29:32.203Z,7.60
2023-04-26T20:34:33.675Z,7.46
2023-04-26T20:39:35.947Z,7.29
2023-04-26T20:44:37.372Z,7.14
2023-04-26T20:49:39.123Z,7.04
2023-04-26T20:54:40.568Z,6.94
2023-04-26T20:59:42.054Z,6.84
2023-04-26T21:04:43.747Z,6.68
2023-04-26T21:09:45.274Z,6.54
2023-04-26T21:14:47.742Z,6.41
2023-04-26T21:19:49.197Z,6.31
2023-04-26T21:24:51.858Z,6.21
2023-04-26T21:29:53.249Z,6.10
2023-04-26T21:34:54.674Z,6.00
2023-04-26T21:39:56.176Z,5.95
2023-04-26T21:44:57.610Z,5.88
2023-04-26T21:49:59.075Z,5.82
2023-04-26T21:55:01.172Z,5.79
